Time;durP1;ratioP1;P1;durP2;ratioP2;P2;SDS_P1;SDS_P2;PMS_P1;PMS_P2;Temp;Humidity;BMP_temperature;BMP_pressure;BME280_temperature;BME280_humidity;BME280_pressure;Samples;Min_cycle;Max_cycle;Signal;HPM_P1;HPM_P2
2022/03/06 00:00:40;;;;;;;0.10;0.10;;;0.50;99.90;;;;;;5052304;28;20053;-83
2022/03/06 00:03:09;;;;;;;0.10;0.10;;;0.50;99.90;;;;;;5052807;28;20049;-83
2022/03/06 00:05:35;;;;;;;0.22;0.22;;;0.50;99.90;;;;;;5036301;28;20463;-83
2022/03/06 00:08:02;;;;;;;0.17;0.10;;;0.50;99.90;;;;;;5036327;28;20075;-83
2022/03/06 00:10:29;;;;;;;0.08;0.00;;;0.50;99.90;;;;;;5052993;28;20060;-83
2022/03/06 00:12:54;;;;;;;0.20;0.20;;;0.50;99.90;;;;;;5052434;28;20492;-83
2022/03/06 00:15:22;;;;;;;0.52;0.52;;;0.50;99.90;;;;;;5038025;28;20096;-84
2022/03/06 00:17:48;;;;;;;0.73;0.10;;;0.50;99.90;;;;;;5056563;28;20044;-84
2022/03/06 00:20:14;;;;;;;1.00;0.10;;;0.40;99.90;;;;;;5056651;28;20041;-83
2022/03/06 00:22:40;;;;;;;0.20;0.20;;;0.30;99.90;;;;;;5039767;28;20106;-83
2022/03/06 00:25:06;;;;;;;0.10;0.10;;;0.30;99.90;;;;;;5040216;28;20084;-83
2022/03/06 00:27:32;;;;;;;0.75;0.43;;;0.30;99.90;;;;;;5040028;28;20507;-83
2022/03/06 00:29:58;;;;;;;1.00;0.30;;;0.30;99.90;;;;;;5056489;28;20041;-83
2022/03/06 00:32:24;;;;;;;0.28;0.15;;;0.30;99.90;;;;;;5039955;28;20128;-83
2022/03/06 00:34:49;;;;;;;4.38;0.38;;;0.30;99.90;;;;;;5056027;28;20076;-83
2022/03/06 00:37:15;;;;;;;0.00;0.00;;;0.20;99.90;;;;;;5056283;28;20045;-83
2022/03/06 00:39:42;;;;;;;0.15;0.15;;;0.20;99.90;;;;;;5039629;28;20056;-83
2022/03/06 00:42:08;;;;;;;0.20;0.10;;;0.20;99.90;;;;;;5056184;28;20136;-83
2022/03/06 00:44:37;;;;;;;0.65;0.17;;;0.20;99.90;;;;;;5056168;28;20047;-83
2022/03/06 00:47:04;;;;;;;0.73;0.20;;;0.20;99.90;;;;;;5039497;28;20059;-83
2022/03/06 00:49:33;;;;;;;0.28;0.28;;;0.20;99.90;;;;;;5056096;28;20049;-83
2022/03/06 00:51:59;;;;;;;0.40;0.40;;;0.10;99.90;;;;;;5039352;28;20045;-83
2022/03/06 00:54:25;;;;;;;0.38;0.38;;;0.10;99.90;;;;;;5039221;28;20045;-83
2022/03/06 00:56:51;;;;;;;0.00;0.00;;;0.00;99.90;;;;;;5056379;28;20048;-83
2022/03/06 00:59:17;;;;;;;0.00;0.00;;;0.10;99.90;;;;;;5055598;28;20060;-83
2022/03/06 01:01:43;;;;;;;0.20;0.20;;;0.00;99.90;;;;;;5039279;28;20378;-83
2022/03/06 01:04:09;;;;;;;0.10;0.10;;;0.00;99.90;;;;;;5039558;28;20130;-83
2022/03/06 01:06:36;;;;;;;0.55;0.55;;;0.00;99.90;;;;;;5039392;28;20049;-83
2022/03/06 01:09:03;;;;;;;0.10;0.10;;;0.00;99.90;;;;;;5055677;28;20103;-83
2022/03/06 01:11:29;;;;;;;0.00;0.00;;;0.00;99.90;;;;;;5039152;28;20136;-83
2022/03/06 01:13:57;;;;;;;0.00;0.00;;;0.00;99.90;;;;;;5039338;28;20509;-83
2022/03/06 01:16:25;;;;;;;0.13;0.13;;;0.00;99.90;;;;;;5039039;28;20131;-83
2022/03/06 01:18:51;;;;;;;0.20;0.15;;;-0.10;99.90;;;;;;5039592;28;20059;-84
2022/03/06 01:21:17;;;;;;;0.10;0.10;;;-0.10;99.90;;;;;;5038412;28;20057;-83
2022/03/06 01:23:42;;;;;;;0.25;0.25;;;-0.10;99.90;;;;;;5039005;28;20045;-83
2022/03/06 01:26:08;;;;;;;0.00;0.00;;;-0.10;99.90;;;;;;5054954;28;20056;-84
2022/03/06 01:28:36;;;;;;;0.25;0.25;;;-0.10;99.90;;;;;;5055148;28;20568;-84
2022/03/06 01:31:05;;;;;;;0.00;0.00;;;0.40;99.90;;;;;;5055275;28;20037;-83
2022/03/06 01:33:30;;;;;;;0.10;0.10;;;-0.10;99.90;;;;;;5038821;28;20131;-83
2022/03/06 01:35:56;;;;;;;0.85;0.20;;;-0.10;99.90;;;;;;5054861;28;20132;-83
2022/03/06 01:38:22;;;;;;;0.20;0.15;;;-0.10;99.90;;;;;;5039023;28;20063;-84
2022/03/06 01:40:48;;;;;;;0.05;0.05;;;-0.20;99.90;;;;;;5038730;28;20053;-83
2022/03/06 01:43:14;;;;;;;1.02;0.10;;;-0.20;99.90;;;;;;5037825;28;20148;-83
2022/03/06 01:45:42;;;;;;;1.30;0.55;;;-0.20;99.90;;;;;;5038407;28;20099;-83
2022/03/06 01:48:10;;;;;;;0.10;0.10;;;-0.20;99.90;;;;;;5038066;28;20053;-84
2022/03/06 01:50:40;;;;;;;0.80;0.43;;;-0.20;99.90;;;;;;5055098;28;20045;-83
2022/03/06 01:53:08;;;;;;;0.00;0.00;;;-0.20;99.90;;;;;;5054563;28;20056;-83
2022/03/06 01:55:38;;;;;;;2.75;0.10;;;-0.30;99.90;;;;;;5038623;28;20416;-83
2022/03/06 01:58:06;;;;;;;0.10;0.10;;;-0.30;99.90;;;;;;5054705;28;20500;-84
2022/03/06 02:00:45;;;;;;;0.10;0.10;;;-0.30;99.90;;;;;;5053861;28;20166;-84
2022/03/06 02:03:13;;;;;;;1.30;0.17;;;-0.30;99.90;;;;;;5054678;28;20088;-84
2022/03/06 02:05:38;;;;;;;0.30;0.25;;;-0.30;99.90;;;;;;5037864;28;20045;-83
2022/03/06 02:08:05;;;;;;;0.00;0.00;;;-0.30;99.90;;;;;;5037878;28;20097;-83
2022/03/06 02:10:32;;;;;;;0.40;0.40;;;-0.30;99.90;;;;;;5054462;28;20057;-84
2022/03/06 02:12:58;;;;;;;0.10;0.10;;;-0.30;99.90;;;;;;5037955;28;20162;-84
2022/03/06 02:15:24;;;;;;;0.10;0.10;;;-0.30;99.90;;;;;;5037435;28;20073;-84
2022/03/06 02:17:50;;;;;;;0.57;0.57;;;-0.30;99.90;;;;;;5037724;28;20056;-85
2022/03/06 02:20:24;;;;;;;0.22;0.20;;;-0.30;99.90;;;;;;5054125;28;20045;-84
2022/03/06 02:22:53;;;;;;;0.00;0.00;;;-0.30;99.90;;;;;;5053984;28;20493;-84
2022/03/06 02:25:22;;;;;;;0.00;0.00;;;-0.30;99.90;;;;;;5054058;28;20077;-84
2022/03/06 02:27:53;;;;;;;0.45;0.17;;;-0.30;99.90;;;;;;5054066;28;20045;-84
2022/03/06 02:30:21;;;;;;;0.20;0.20;;;-0.30;99.90;;;;;;5054300;28;20377;-84
2022/03/06 02:32:48;;;;;;;0.10;0.10;;;-0.40;99.90;;;;;;5037716;28;20162;-83
2022/03/06 02:35:15;;;;;;;0.10;0.10;;;-0.40;99.90;;;;;;5054008;28;20041;-84
2022/03/06 02:37:41;;;;;;;0.73;0.47;;;-0.40;99.90;;;;;;5053083;28;20128;-83
2022/03/06 02:40:09;;;;;;;0.17;0.17;;;-0.30;99.90;;;;;;5037435;28;20588;-84
2022/03/06 02:42:37;;;;;;;0.10;0.10;;;-0.40;99.90;;;;;;5053972;28;20049;-84
2022/03/06 02:45:25;;;;;;;0.08;0.08;;;-0.40;99.90;;;;;;5036882;28;20492;-84
2022/03/06 02:47:56;;;;;;;0.32;0.10;;;-0.40;99.90;;;;;;5037383;28;20037;-84
2022/03/06 02:50:24;;;;;;;0.13;0.13;;;-0.40;99.90;;;;;;5037017;28;20053;-84
2022/03/06 02:52:51;;;;;;;3.42;0.28;;;-0.40;99.90;;;;;;5053622;28;20476;-84
2022/03/06 02:55:17;;;;;;;0.05;0.05;;;-0.40;99.90;;;;;;5036634;28;20049;-83
2022/03/06 02:57:44;;;;;;;0.55;0.20;;;-0.40;99.90;;;;;;5036981;28;20057;-84
2022/03/06 03:00:13;;;;;;;3.53;0.17;;;-0.40;99.90;;;;;;5036644;28;20097;-84
2022/03/06 03:02:39;;;;;;;0.10;0.10;;;-0.50;99.90;;;;;;5036865;28;20045;-84
2022/03/06 03:05:07;;;;;;;0.10;0.10;;;-0.50;99.90;;;;;;5053730;28;20389;-85
2022/03/06 03:07:35;;;;;;;0.00;0.00;;;-0.50;99.90;;;;;;5053485;28;20044;-84
2022/03/06 03:10:01;;;;;;;0.00;0.00;;;-0.60;99.90;;;;;;5053521;28;20041;-84
2022/03/06 03:12:27;;;;;;;0.20;0.20;;;-0.60;99.90;;;;;;5037001;28;20056;-84
2022/03/06 03:14:52;;;;;;;0.00;0.00;;;-0.60;99.90;;;;;;5036671;28;20095;-84
2022/03/06 03:17:18;;;;;;;0.13;0.13;;;-0.60;99.90;;;;;;5036549;28;20527;-84
2022/03/06 03:19:46;;;;;;;0.82;0.10;;;-0.60;99.90;;;;;;5053040;28;20044;-85
2022/03/06 03:22:12;;;;;;;0.20;0.20;;;-0.60;99.90;;;;;;5036650;28;20065;-84
2022/03/06 03:24:39;;;;;;;0.90;0.73;;;-0.60;99.90;;;;;;5053198;28;20061;-84
2022/03/06 03:27:05;;;;;;;0.00;0.00;;;-0.60;99.90;;;;;;5036242;28;20049;-84
2022/03/06 03:29:31;;;;;;;0.00;0.00;;;-0.20;99.90;;;;;;5052952;28;20044;-85
2022/03/06 03:31:56;;;;;;;1.45;0.55;;;-0.60;99.90;;;;;;5052836;28;20140;-84
2022/03/06 03:34:22;;;;;;;0.00;0.00;;;-0.40;99.90;;;;;;5052893;28;20033;-84
2022/03/06 03:36:48;;;;;;;0.00;0.00;;;-0.50;99.90;;;;;;5036775;28;20110;-84
2022/03/06 03:39:13;;;;;;;0.00;0.00;;;-0.10;99.90;;;;;;5053178;28;20103;-84
2022/03/06 03:41:39;;;;;;;0.22;0.10;;;-0.50;99.90;;;;;;5036836;28;20385;-84
2022/03/06 03:44:08;;;;;;;0.28;0.28;;;-0.50;99.90;;;;;;5036704;28;20113;-84
2022/03/06 03:46:33;;;;;;;0.00;0.00;;;-0.50;99.90;;;;;;5036284;28;20128;-84
2022/03/06 03:48:59;;;;;;;0.00;0.00;;;-0.50;99.90;;;;;;5037988;28;20053;-84
2022/03/06 03:51:25;;;;;;;0.00;0.00;;;-0.50;99.90;;;;;;5040754;28;20044;-85
2022/03/06 03:53:50;;;;;;;0.30;0.30;;;-0.50;99.90;;;;;;5040873;28;20451;-84
2022/03/06 03:56:16;;;;;;;0.38;0.38;;;-0.40;99.90;;;;;;5056958;28;20041;-85
2022/03/06 03:58:42;;;;;;;0.00;0.00;;;-0.40;99.90;;;;;;5056749;28;20124;-85
2022/03/06 04:01:07;;;;;;;0.00;0.00;;;-0.40;99.90;;;;;;5056287;28;20110;-84
2022/03/06 04:03:33;;;;;;;0.90;0.57;;;-0.40;99.90;;;;;;5056496;28;20049;-84
2022/03/06 04:06:02;;;;;;;0.00;0.00;;;-0.40;99.90;;;;;;5041300;28;20060;-84
2022/03/06 04:08:28;;;;;;;0.20;0.20;;;-0.40;99.90;;;;;;5057109;28;20178;-84
2022/03/06 04:10:59;;;;;;;0.10;0.00;;;-0.40;99.90;;;;;;5040089;28;20041;-84
2022/03/06 04:13:25;;;;;;;3.00;0.43;;;-0.40;99.90;;;;;;5056715;28;20049;-84
2022/03/06 04:15:51;;;;;;;0.10;0.10;;;-0.40;99.90;;;;;;5039789;28;20135;-84
2022/03/06 04:18:17;;;;;;;0.00;0.00;;;-0.40;99.90;;;;;;5056730;28;20085;-84
2022/03/06 04:20:43;;;;;;;0.13;0.08;;;-0.30;99.90;;;;;;5040245;28;20053;-84
2022/03/06 04:23:09;;;;;;;0.00;0.00;;;-0.30;99.90;;;;;;5056686;28;20049;-84
2022/03/06 04:25:35;;;;;;;0.30;0.08;;;-0.30;99.90;;;;;;5056321;28;20041;-84
2022/03/06 04:28:01;;;;;;;0.00;0.00;;;-0.20;99.90;;;;;;5056409;28;20488;-84
2022/03/06 04:30:27;;;;;;;0.05;0.00;;;-0.10;99.90;;;;;;5056447;28;20462;-84
2022/03/06 04:32:55;;;;;;;3.40;0.73;;;-0.20;99.90;;;;;;5056334;28;20074;-84
2022/03/06 04:35:20;;;;;;;2.17;0.32;;;-0.20;99.90;;;;;;5056028;28;20041;-84
2022/03/06 04:37:46;;;;;;;0.00;0.00;;;-0.20;99.90;;;;;;5055894;28;20041;-84
2022/03/06 04:40:15;;;;;;;1.65;0.98;;;-0.10;99.90;;;;;;5039644;28;20056;-85
2022/03/06 04:42:41;;;;;;;0.35;0.35;;;-0.20;99.90;;;;;;5039152;28;20484;-84
2022/03/06 04:45:07;;;;;;;0.00;0.00;;;-0.20;99.90;;;;;;5039639;28;20076;-84
2022/03/06 04:47:34;;;;;;;0.00;0.00;;;-0.30;99.90;;;;;;5055938;28;20485;-84
2022/03/06 04:50:00;;;;;;;2.17;0.50;;;-0.30;99.90;;;;;;5055424;28;20562;-84
2022/03/06 04:52:25;;;;;;;0.10;0.00;;;-0.40;99.90;;;;;;5039228;28;20102;-84
2022/03/06 04:54:51;;;;;;;0.00;0.00;;;-0.40;99.90;;;;;;5039332;28;20041;-84
2022/03/06 04:57:17;;;;;;;0.00;0.00;;;-0.40;99.90;;;;;;5055508;28;20516;-84
2022/03/06 04:59:45;;;;;;;0.32;0.10;;;-0.50;99.90;;;;;;5038573;28;20056;-84
2022/03/06 05:02:11;;;;;;;0.00;0.00;;;-0.50;99.90;;;;;;5038528;28;20045;-85
2022/03/06 05:04:40;;;;;;;0.13;0.10;;;-0.50;99.90;;;;;;5039827;28;20048;-85
2022/03/06 05:07:06;;;;;;;0.10;0.03;;;-0.50;99.90;;;;;;5038841;28;20400;-85
2022/03/06 05:09:31;;;;;;;0.00;0.00;;;-0.60;99.90;;;;;;5039047;28;20041;-84
2022/03/06 05:11:57;;;;;;;0.03;0.03;;;-0.60;99.90;;;;;;5055535;28;20068;-84
2022/03/06 05:14:23;;;;;;;0.00;0.00;;;-0.60;99.90;;;;;;5038991;28;20044;-84
2022/03/06 05:16:48;;;;;;;0.17;0.17;;;-0.70;99.90;;;;;;5038356;28;20041;-85
2022/03/06 05:19:14;;;;;;;0.20;0.08;;;-0.70;99.90;;;;;;5070713;28;20056;-84
2022/03/06 05:21:40;;;;;;;0.00;0.00;;;-0.70;99.90;;;;;;5056456;28;20498;-86
2022/03/06 05:24:07;;;;;;;0.45;0.25;;;-0.70;99.90;;;;;;5074154;28;20040;-86
2022/03/06 05:26:32;;;;;;;0.00;0.00;;;-0.70;99.90;;;;;;5056995;28;20048;-84
2022/03/06 05:28:58;;;;;;;0.00;0.00;;;-0.80;99.90;;;;;;5056106;28;20151;-84
2022/03/06 05:31:24;;;;;;;0.00;0.00;;;-0.80;99.90;;;;;;5056653;28;20048;-85
2022/03/06 05:33:50;;;;;;;0.00;0.00;;;-0.80;99.90;;;;;;5073017;28;20389;-85
2022/03/06 05:36:17;;;;;;;0.32;0.32;;;-0.80;99.90;;;;;;5056717;28;20048;-85
2022/03/06 05:38:43;;;;;;;0.10;0.10;;;-0.80;99.90;;;;;;5056293;28;20110;-85
2022/03/06 05:41:09;;;;;;;1.83;0.50;;;-0.80;99.90;;;;;;5072538;28;20520;-85
2022/03/06 05:43:35;;;;;;;0.00;0.00;;;-0.90;99.90;;;;;;5055941;28;20059;-85
2022/03/06 05:46:02;;;;;;;0.15;0.13;;;-0.90;99.90;;;;;;5056656;28;20105;-84
2022/03/06 05:48:30;;;;;;;0.00;0.00;;;-0.90;99.90;;;;;;5071683;28;20045;-85
2022/03/06 05:50:56;;;;;;;0.00;0.00;;;-1.10;99.90;;;;;;5073431;28;20060;-85
2022/03/06 05:53:21;;;;;;;0.00;0.00;;;-0.90;99.90;;;;;;5056913;28;20055;-86
2022/03/06 05:55:47;;;;;;;0.03;0.03;;;-0.90;99.90;;;;;;5056359;28;20045;-85
2022/03/06 05:58:13;;;;;;;0.17;0.13;;;-0.90;99.90;;;;;;5055640;28;20048;-85
2022/03/06 06:00:39;;;;;;;0.15;0.15;;;-0.90;99.90;;;;;;5072665;28;20598;-85
2022/03/06 06:03:04;;;;;;;0.00;0.00;;;-0.80;99.90;;;;;;5055714;28;20052;-85
2022/03/06 06:05:33;;;;;;;0.30;0.30;;;-0.90;99.90;;;;;;5056980;28;20057;-85
2022/03/06 06:08:01;;;;;;;0.15;0.15;;;-0.90;99.90;;;;;;5072424;28;20501;-85
2022/03/06 06:10:27;;;;;;;0.10;0.10;;;-0.90;99.90;;;;;;5056023;28;20131;-85
2022/03/06 06:12:52;;;;;;;0.00;0.00;;;-0.90;99.90;;;;;;5055184;28;20052;-85
2022/03/06 06:15:18;;;;;;;0.00;0.00;;;-0.80;99.90;;;;;;5056485;28;20492;-84
2022/03/06 06:17:44;;;;;;;0.75;0.30;;;-0.90;99.90;;;;;;5071195;28;20131;-86
2022/03/06 06:20:10;;;;;;;0.00;0.00;;;-0.90;99.90;;;;;;5056992;28;20466;-85
2022/03/06 06:22:36;;;;;;;0.00;0.00;;;-0.90;99.90;;;;;;5073191;28;20048;-85
2022/03/06 06:25:03;;;;;;;0.20;0.20;;;-0.90;99.90;;;;;;5056457;28;20400;-85
2022/03/06 06:27:29;;;;;;;0.00;0.00;;;-0.90;99.90;;;;;;5073424;28;20122;-85
2022/03/06 06:29:54;;;;;;;0.00;0.00;;;-0.90;99.90;;;;;;5056656;28;20488;-86
2022/03/06 06:32:20;;;;;;;0.40;0.35;;;-0.80;99.90;;;;;;5057091;28;20044;-86
2022/03/06 06:34:49;;;;;;;0.63;0.00;;;-0.80;99.90;;;;;;5073467;28;20040;-86
2022/03/06 06:37:17;;;;;;;0.10;0.10;;;-0.80;99.90;;;;;;5055801;28;20044;-85
2022/03/06 06:39:43;;;;;;;0.47;0.47;;;-0.70;99.90;;;;;;5056645;28;20044;-85
2022/03/06 06:42:09;;;;;;;0.00;0.00;;;-0.70;99.90;;;;;;5073205;28;20094;-85
2022/03/06 06:44:36;;;;;;;0.00;0.00;;;-0.60;99.90;;;;;;5073187;28;20400;-85
2022/03/06 06:47:03;;;;;;;0.10;0.10;;;-0.50;99.90;;;;;;5056276;28;20044;-85
2022/03/06 06:49:31;;;;;;;0.00;0.00;;;-0.40;99.90;;;;;;5072736;28;20051;-85
2022/03/06 06:51:57;;;;;;;0.00;0.00;;;0.00;99.90;;;;;;5072416;28;20488;-85
2022/03/06 06:54:25;;;;;;;5.28;0.10;;;-0.30;99.90;;;;;;5056013;28;20124;-85
2022/03/06 06:56:51;;;;;;;0.20;0.20;;;-0.20;99.90;;;;;;5069764;28;20044;-86
2022/03/06 06:59:16;;;;;;;0.00;0.00;;;-0.10;99.90;;;;;;5055571;28;20051;-85
2022/03/06 07:01:42;;;;;;;0.00;0.00;;;0.00;99.90;;;;;;5056088;28;20063;-87
2022/03/06 07:04:08;;;;;;;0.00;0.00;;;0.10;99.90;;;;;;5072892;28;20059;-86
2022/03/06 07:06:34;;;;;;;0.00;0.00;;;0.10;99.90;;;;;;5072441;28;20101;-87
2022/03/06 07:09:02;;;;;;;0.00;0.00;;;0.20;99.90;;;;;;5056155;28;20462;-86
2022/03/06 07:11:28;;;;;;;0.00;0.00;;;0.30;99.90;;;;;;5055624;28;20056;-85
2022/03/06 07:13:53;;;;;;;0.00;0.00;;;0.40;99.90;;;;;;5072918;28;20454;-86
2022/03/06 07:16:19;;;;;;;0.52;0.20;;;0.50;99.90;;;;;;5055664;28;20044;-86
2022/03/06 07:18:53;;;;;;;0.10;0.10;;;0.60;99.90;;;;;;5072213;28;20054;-86
2022/03/06 07:21:19;;;;;;;0.10;0.10;;;0.60;99.90;;;;;;5072240;28;20052;-85
2022/03/06 07:23:45;;;;;;;0.00;0.00;;;0.80;99.90;;;;;;5055320;28;20381;-86
2022/03/06 07:26:11;;;;;;;0.08;0.08;;;0.80;99.90;;;;;;5055930;28;20044;-86
2022/03/06 07:28:36;;;;;;;0.00;0.00;;;1.00;99.90;;;;;;5055726;28;20484;-86
2022/03/06 07:31:02;;;;;;;0.00;0.00;;;1.00;99.90;;;;;;5072184;28;20045;-86
2022/03/06 07:33:28;;;;;;;1.00;0.47;;;1.80;99.90;;;;;;5071671;28;20048;-85
2022/03/06 07:35:54;;;;;;;0.00;0.00;;;1.20;99.90;;;;;;5055014;28;20127;-85
2022/03/06 07:38:19;;;;;;;0.35;0.20;;;1.20;99.90;;;;;;5055594;28;20044;-85
2022/03/06 07:40:45;;;;;;;0.00;0.00;;;1.20;99.90;;;;;;5072240;28;20056;-85
2022/03/06 07:43:11;;;;;;;0.28;0.28;;;0.90;99.90;;;;;;5055123;28;20438;-85
2022/03/06 07:45:39;;;;;;;0.93;0.93;;;1.30;99.90;;;;;;5056092;28;20061;-85
2022/03/06 07:48:05;;;;;;;0.00;0.00;;;1.30;99.90;;;;;;5075986;28;20128;-84
2022/03/06 07:50:31;;;;;;;0.40;0.40;;;1.40;99.90;;;;;;5062878;28;20135;-85
2022/03/06 07:52:59;;;;;;;0.00;0.00;;;1.40;99.90;;;;;;5063534;28;20049;-85
2022/03/06 07:55:25;;;;;;;0.00;0.00;;;1.60;99.90;;;;;;5051379;28;20488;-85
2022/03/06 07:57:51;;;;;;;0.00;0.00;;;1.70;99.90;;;;;;5052208;28;20049;-85
2022/03/06 08:00:17;;;;;;;0.38;0.08;;;1.80;99.90;;;;;;5035784;28;20088;-84
2022/03/06 08:02:42;;;;;;;0.75;0.25;;;1.90;99.90;;;;;;5034993;28;20053;-85
2022/03/06 08:05:08;;;;;;;0.00;0.00;;;1.90;99.90;;;;;;5061855;28;20054;-84
2022/03/06 08:07:35;;;;;;;0.10;0.10;;;2.30;99.90;;;;;;5042159;28;20088;-84
2022/03/06 08:10:04;;;;;;;0.00;0.00;;;2.10;99.90;;;;;;5060573;28;20041;-85
2022/03/06 08:12:30;;;;;;;0.00;0.00;;;2.20;99.90;;;;;;5057707;28;20044;-82
2022/03/06 08:14:55;;;;;;;0.00;0.00;;;2.30;99.90;;;;;;5041948;28;20033;-84
2022/03/06 08:17:21;;;;;;;0.00;0.00;;;2.50;99.90;;;;;;5043343;28;20494;-84
2022/03/06 08:19:47;;;;;;;0.00;0.00;;;2.90;99.90;;;;;;5044616;28;20059;-83
2022/03/06 08:22:13;;;;;;;0.10;0.10;;;3.50;99.90;;;;;;5062003;28;20499;-84
2022/03/06 08:24:39;;;;;;;0.00;0.00;;;3.70;99.90;;;;;;5060074;28;20051;-85
2022/03/06 08:27:05;;;;;;;1.42;0.63;;;3.80;99.90;;;;;;5061036;28;20036;-83
2022/03/06 08:29:34;;;;;;;0.00;0.00;;;3.90;99.90;;;;;;5042836;28;20056;-84
2022/03/06 08:32:00;;;;;;;0.00;0.00;;;3.80;99.90;;;;;;5060529;28;20037;-84
2022/03/06 08:34:25;;;;;;;0.00;0.00;;;3.80;99.90;;;;;;5040144;28;20052;-84
2022/03/06 08:36:51;;;;;;;0.17;0.17;;;3.80;99.90;;;;;;5037896;28;20056;-84
2022/03/06 08:39:17;;;;;;;0.00;0.00;;;4.00;99.90;;;;;;5057317;28;20507;-86
2022/03/06 08:41:42;;;;;;;0.10;0.00;;;4.10;99.90;;;;;;5064041;28;20126;-88
2022/03/06 08:44:08;;;;;;;24.98;0.80;;;4.10;99.90;;;;;;5048468;28;20047;-88
2022/03/06 08:46:34;;;;;;;0.00;0.00;;;4.40;99.90;;;;;;5045072;28;20535;-87
2022/03/06 08:49:00;;;;;;;0.00;0.00;;;4.40;99.90;;;;;;5046083;28;20037;-88
2022/03/06 08:51:25;;;;;;;0.00;0.00;;;4.60;99.90;;;;;;5047302;28;20802;-88
2022/03/06 08:53:51;;;;;;;0.20;0.20;;;5.20;99.90;;;;;;5047589;28;20407;-88
2022/03/06 08:56:17;;;;;;;0.00;0.00;;;5.20;99.90;;;;;;5047229;28;20036;-89
2022/03/06 08:58:43;;;;;;;0.03;0.00;;;5.60;98.40;;;;;;5046217;28;20045;-89
2022/03/06 09:01:08;;;;;;;0.00;0.00;;;5.40;98.10;;;;;;5056822;28;20048;-90
2022/03/06 09:03:34;;;;;;;0.00;0.00;;;5.60;97.50;;;;;;5063847;28;20400;-89
2022/03/06 09:06:00;;;;;;;0.22;0.22;;;5.40;96.20;;;;;;5059117;28;20045;-89
2022/03/06 09:08:25;;;;;;;0.10;0.00;;;5.50;96.20;;;;;;5038589;28;20396;-89
2022/03/06 09:10:54;;;;;;;0.00;0.00;;;5.10;96.10;;;;;;5039100;28;20468;-93
2022/03/06 09:13:22;;;;;;;0.00;0.00;;;5.20;95.80;;;;;;5056130;28;20098;-94
2022/03/06 09:15:49;;;;;;;0.00;0.00;;;5.90;94.80;;;;;;5038703;28;20049;-89
2022/03/06 09:18:15;;;;;;;0.28;0.28;;;5.50;93.80;;;;;;5038569;28;20041;-89
2022/03/06 09:20:40;;;;;;;0.00;0.00;;;5.70;94.60;;;;;;5038383;28;20202;-90
2022/03/06 09:23:08;;;;;;;0.15;0.15;;;5.40;93.60;;;;;;5038408;28;20053;-89
2022/03/06 09:25:34;;;;;;;0.00;0.00;;;5.70;94.70;;;;;;5054643;28;20458;-89
2022/03/06 09:28:01;;;;;;;0.00;0.00;;;5.80;93.00;;;;;;5038327;28;20049;-89
2022/03/06 09:30:27;;;;;;;0.00;0.00;;;6.20;93.10;;;;;;5038355;28;20412;-90
2022/03/06 09:32:53;;;;;;;0.20;0.00;;;5.90;91.60;;;;;;5055300;28;20198;-89
2022/03/06 09:35:19;;;;;;;0.00;0.00;;;6.10;90.80;;;;;;5054320;28;20435;-89
2022/03/06 09:37:45;;;;;;;0.10;0.10;;;6.30;90.30;;;;;;5037939;28;20048;-89
2022/03/06 09:40:11;;;;;;;0.10;0.10;;;6.40;90.50;;;;;;5038449;28;20501;-89
2022/03/06 09:42:38;;;;;;;0.00;0.00;;;6.40;90.40;;;;;;5054921;28;20576;-89
2022/03/06 09:45:06;;;;;;;0.00;0.00;;;6.60;88.40;;;;;;5037824;28;20053;-89
2022/03/06 09:47:32;;;;;;;0.00;0.00;;;6.70;88.40;;;;;;5037689;28;20425;-90
2022/03/06 09:50:00;;;;;;;0.00;0.00;;;6.80;88.20;;;;;;5055976;28;20392;-95
2022/03/06 09:52:26;;;;;;;0.00;0.00;;;7.10;85.10;;;;;;5038651;28;20131;-94
2022/03/06 09:54:52;;;;;;;0.00;0.00;;;6.60;83.30;;;;;;5054763;28;20132;-90
2022/03/06 09:57:19;;;;;;;0.00;0.00;;;6.60;85.50;;;;;;5037434;28;20041;-92
2022/03/06 09:59:46;;;;;;;0.30;0.00;;;6.60;83.30;;;;;;5070853;28;20067;-89
2022/03/06 10:02:12;;;;;;;0.00;0.00;;;6.90;83.10;;;;;;5065077;28;20048;-88
2022/03/06 10:04:38;;;;;;;0.00;0.00;;;7.10;81.30;;;;;;5057760;28;20488;-89
2022/03/06 10:07:15;;;;;;;0.90;0.25;;;7.40;82.30;;;;;;5057616;28;20040;-88
2022/03/06 10:09:47;;;;;;;0.05;0.00;;;7.20;81.90;;;;;;5074023;28;20481;-88
2022/03/06 10:12:29;;;;;;;0.00;0.00;;;7.40;79.20;;;;;;5074511;28;20048;-88
2022/03/06 10:14:58;;;;;;;0.00;0.00;;;7.30;76.80;;;;;;5057281;28;20043;-88
2022/03/06 10:17:28;;;;;;;0.40;0.05;;;7.10;76.00;;;;;;5056640;28;20041;-87
2022/03/06 10:20:04;;;;;;;0.40;0.10;;;7.10;77.70;;;;;;5073928;28;20048;-87
2022/03/06 10:22:34;;;;;;;0.00;0.00;;;7.20;77.80;;;;;;5070559;28;20043;-87
2022/03/06 10:25:09;;;;;;;0.00;0.00;;;8.30;77.00;;;;;;5073431;28;20488;-87
2022/03/06 10:27:46;;;;;;;0.00;0.00;;;7.60;76.70;;;;;;5073729;28;20127;-87
2022/03/06 10:30:26;;;;;;;0.00;0.00;;;7.80;76.30;;;;;;5056481;28;20048;-87
2022/03/06 10:32:59;;;;;;;0.00;0.00;;;7.40;73.50;;;;;;5056580;28;20583;-86
2022/03/06 10:35:37;;;;;;;0.10;0.10;;;7.30;72.70;;;;;;5056448;28;20040;-87
2022/03/06 10:38:26;;;;;;;3.55;0.15;;;7.30;74.00;;;;;;5073452;28;20498;-87
2022/03/06 10:40:56;;;;;;;0.03;0.00;;;7.50;75.10;;;;;;5056387;28;20052;-87
2022/03/06 10:43:25;;;;;;;0.05;0.05;;;7.70;73.40;;;;;;5056144;28;20106;-88
2022/03/06 10:46:10;;;;;;;0.00;0.00;;;7.80;72.60;;;;;;5056825;28;20102;-88
2022/03/06 10:48:36;;;;;;;;;;;7.80;70.00;;;;;;5056599;28;20076;-88
2022/03/06 10:51:05;;;;;;;0.00;0.00;;;7.80;70.50;;;;;;5073326;28;19920;-88
2022/03/06 10:53:33;;;;;;;0.40;0.38;;;7.90;69.70;;;;;;5055978;28;20045;-88
2022/03/06 10:56:13;;;;;;;0.10;0.10;;;7.80;69.80;;;;;;5072477;28;20044;-89
2022/03/06 10:58:44;;;;;;;0.00;0.00;;;8.50;70.10;;;;;;5056134;28;20053;-89
2022/03/06 11:01:11;;;;;;;0.00;0.00;;;8.00;70.50;;;;;;5072607;28;20135;-89
2022/03/06 11:03:41;;;;;;;0.00;0.00;;;8.00;69.50;;;;;;5056306;28;20515;-89
2022/03/06 11:06:09;;;;;;;0.17;0.05;;;8.10;69.90;;;;;;5056285;28;20041;-89
2022/03/06 11:08:37;;;;;;;0.00;0.00;;;8.20;71.60;;;;;;5072805;28;20551;-90
2022/03/06 11:11:06;;;;;;;0.10;0.00;;;8.30;69.40;;;;;;5056400;28;20109;-90
2022/03/06 11:13:32;;;;;;;0.03;0.03;;;8.50;68.60;;;;;;5056271;28;20055;-90
2022/03/06 11:15:58;;;;;;;0.00;0.00;;;8.60;67.30;;;;;;5056125;28;20052;-89
2022/03/06 11:18:26;;;;;;;0.00;0.00;;;8.40;66.60;;;;;;5072960;28;20044;-90
2022/03/06 11:20:56;;;;;;;0.00;0.00;;;8.40;66.60;;;;;;5056416;28;20506;-90
2022/03/06 11:23:22;;;;;;;0.10;0.00;;;8.60;66.50;;;;;;5056065;28;20047;-90
2022/03/06 11:26:13;;;;;;;0.00;0.00;;;9.50;68.90;;;;;;5056336;28;20048;-90
2022/03/06 11:28:58;;;;;;;0.25;0.25;;;8.70;65.80;;;;;;5056099;28;20046;-89
2022/03/06 11:31:44;;;;;;;0.00;0.00;;;8.60;65.60;;;;;;5055783;28;20040;-90
2022/03/06 11:34:11;;;;;;;0.00;0.00;;;8.60;63.40;;;;;;5072962;28;20045;-88
2022/03/06 11:36:46;;;;;;;0.00;0.00;;;8.30;62.30;;;;;;5072739;28;20049;-89
2022/03/06 11:39:45;;;;;;;0.00;0.00;;;8.10;62.50;;;;;;5055654;28;20048;-88
2022/03/06 11:42:48;;;;;;;0.55;0.00;;;8.00;63.40;;;;;;5054784;28;20075;-89
2022/03/06 11:45:44;;;;;;;0.47;0.47;;;8.00;63.00;;;;;;5054243;28;20063;-87
2022/03/06 11:48:23;;;;;;;0.00;0.00;;;7.80;63.20;;;;;;5038235;28;20044;-89
2022/03/06 11:51:17;;;;;;;1.10;0.10;;;7.70;63.10;;;;;;5037891;28;20512;-88
2022/03/06 11:54:05;;;;;;;0.17;0.05;;;7.90;64.00;;;;;;5054549;28;20385;-88
2022/03/06 11:56:39;;;;;;;0.25;0.00;;;8.00;64.10;;;;;;5053893;28;20047;-88
2022/03/06 11:59:25;;;;;;;0.20;0.20;;;8.20;63.70;;;;;;5053806;28;20404;-89
2022/03/06 12:02:01;;;;;;;0.10;0.10;;;8.40;62.60;;;;;;5037208;28;20056;-88
2022/03/06 12:04:33;;;;;;;0.00;0.00;;;8.30;62.50;;;;;;5037907;28;20485;-87
2022/03/06 12:07:04;;;;;;;0.05;0.00;;;8.40;62.50;;;;;;5054599;28;20045;-88
2022/03/06 12:09:36;;;;;;;0.32;0.32;;;8.20;60.50;;;;;;5038797;28;20137;-88
2022/03/06 12:12:16;;;;;;;0.00;0.00;;;8.30;61.60;;;;;;5058953;28;20450;-90
2022/03/06 12:14:52;;;;;;;0.00;0.00;;;8.40;62.00;;;;;;5038089;28;20048;-88
2022/03/06 12:17:30;;;;;;;0.00;0.00;;;9.10;62.40;;;;;;5042504;28;20088;-88
2022/03/06 12:19:56;;;;;;;0.08;0.08;;;8.90;61.50;;;;;;5056530;28;20076;-87
2022/03/06 12:22:43;;;;;;;0.00;0.00;;;9.00;61.80;;;;;;5056343;28;20130;-87
2022/03/06 12:25:08;;;;;;;0.25;0.00;;;9.10;60.90;;;;;;5056192;28;20057;-87
2022/03/06 12:27:36;;;;;;;0.00;0.00;;;9.20;59.00;;;;;;5055873;28;20041;-87
2022/03/06 12:30:11;;;;;;;0.00;0.00;;;9.50;60.90;;;;;;5039625;28;20144;-87
2022/03/06 12:32:40;;;;;;;0.60;0.00;;;9.40;59.30;;;;;;5039649;28;20107;-87
2022/03/06 12:35:22;;;;;;;0.20;0.20;;;9.30;58.40;;;;;;5055841;28;20033;-87
2022/03/06 12:37:59;;;;;;;0.68;0.40;;;9.90;60.50;;;;;;5055879;28;20048;-87
2022/03/06 12:40:32;;;;;;;0.00;0.00;;;9.90;58.20;;;;;;5039547;28;20428;-87
2022/03/06 12:43:06;;;;;;;0.00;0.00;;;10.00;58.90;;;;;;5056021;28;20106;-87
2022/03/06 12:45:36;;;;;;;0.00;0.00;;;10.00;58.70;;;;;;5055996;28;20045;-87
2022/03/06 12:48:03;;;;;;;0.00;0.00;;;10.00;59.80;;;;;;5055791;28;20455;-87
2022/03/06 12:50:29;;;;;;;0.00;0.00;;;9.90;57.90;;;;;;5039032;28;20041;-87
2022/03/06 12:52:57;;;;;;;0.00;0.00;;;10.00;59.00;;;;;;5038823;28;20103;-87
2022/03/06 12:55:24;;;;;;;0.00;0.00;;;10.30;60.10;;;;;;5055873;28;20102;-87
2022/03/06 12:57:54;;;;;;;0.55;0.20;;;9.90;58.40;;;;;;5038977;28;20463;-87